Time;durP1;ratioP1;P1;durP2;ratioP2;P2;SDS_P1;SDS_P2;PMS_P1;PMS_P2;Temp;Humidity;BMP_temperature;BMP_pressure;BME280_temperature;BME280_humidity;BME280_pressure;Samples;Min_cycle;Max_cycle;Signal;HPM_P1;HPM_P2
2024/04/14 00:00:33;;;;;;;0.00;0.00;;;14.70;71.60;;;;;;5418125;26;20014;-84
2024/04/14 00:02:59;;;;;;;0.00;0.00;;;14.80;71.60;;;;;;5449465;26;20009;-84
2024/04/14 00:05:26;;;;;;;0.00;0.00;;;14.80;71.40;;;;;;5458085;26;20017;-84
2024/04/14 00:07:52;;;;;;;0.00;0.00;;;14.90;71.20;;;;;;5435823;26;20004;-84
2024/04/14 00:10:18;;;;;;;0.00;0.00;;;14.90;71.10;;;;;;5468356;26;20026;-84
2024/04/14 00:12:43;;;;;;;0.00;0.00;;;14.80;71.00;;;;;;5444118;26;20500;-84
2024/04/14 00:15:09;;;;;;;0.00;0.00;;;14.90;71.00;;;;;;5421723;26;19999;-84
2024/04/14 00:17:35;;;;;;;0.00;0.00;;;14.90;70.90;;;;;;5426161;26;20010;-84
2024/04/14 00:20:03;;;;;;;0.00;0.00;;;14.70;71.40;;;;;;5421670;26;20035;-84
2024/04/14 00:22:29;;;;;;;0.00;0.00;;;14.70;71.80;;;;;;5421701;26;20015;-84
2024/04/14 00:24:55;;;;;;;0.10;0.10;;;14.70;71.70;;;;;;5421801;26;20000;-84
2024/04/14 00:27:21;;;;;;;0.00;0.00;;;14.80;71.20;;;;;;5421582;26;20003;-84
2024/04/14 00:29:47;;;;;;;0.00;0.00;;;14.70;71.40;;;;;;5449798;26;20338;-84
2024/04/14 00:32:13;;;;;;;0.05;0.05;;;14.50;72.00;;;;;;5421867;26;20455;-84
2024/04/14 00:34:39;;;;;;;0.08;0.08;;;14.40;72.20;;;;;;5452733;26;20097;-84
2024/04/14 00:37:05;;;;;;;0.00;0.00;;;14.40;72.50;;;;;;5456688;26;20003;-84
2024/04/14 00:39:30;;;;;;;0.00;0.00;;;14.40;72.40;;;;;;5437135;26;20011;-84
2024/04/14 00:41:56;;;;;;;0.05;0.05;;;14.30;72.70;;;;;;5421510;26;20095;-84
2024/04/14 00:44:21;;;;;;;0.10;0.10;;;14.40;72.80;;;;;;5421477;26;20011;-83
2024/04/14 00:46:47;;;;;;;0.00;0.00;;;14.40;72.60;;;;;;5428192;26;19995;-84
2024/04/14 00:49:13;;;;;;;0.00;0.00;;;14.50;72.70;;;;;;5421260;26;19995;-84
2024/04/14 00:51:38;;;;;;;0.00;0.00;;;14.50;72.40;;;;;;5420675;26;19992;-84
2024/04/14 00:54:05;;;;;;;0.00;0.00;;;14.50;72.60;;;;;;5421312;26;20000;-84
2024/04/14 00:56:31;;;;;;;0.00;0.00;;;14.70;72.10;;;;;;5448040;26;19999;-83
2024/04/14 00:58:57;;;;;;;0.00;0.00;;;14.70;72.10;;;;;;5421420;26;20014;-84
2024/04/14 01:01:22;;;;;;;0.00;0.00;;;14.60;72.30;;;;;;5419514;26;20035;-84
2024/04/14 01:03:49;;;;;;;0.00;0.00;;;14.60;72.40;;;;;;5435792;26;20325;-84
2024/04/14 01:06:16;;;;;;;0.00;0.00;;;14.60;72.50;;;;;;5455553;26;19998;-84
2024/04/14 01:08:41;;;;;;;0.00;0.00;;;14.70;72.30;;;;;;5447892;26;20043;-84
2024/04/14 01:11:07;;;;;;;0.00;0.00;;;14.70;72.40;;;;;;5429640;26;19999;-84
2024/04/14 01:13:33;;;;;;;0.00;0.00;;;14.70;72.60;;;;;;5428075;26;20000;-85
2024/04/14 01:15:58;;;;;;;0.00;0.00;;;14.80;72.30;;;;;;5421121;26;20010;-84
2024/04/14 01:18:24;;;;;;;0.00;0.00;;;14.80;72.20;;;;;;5433574;26;20010;-84
2024/04/14 01:20:50;;;;;;;0.00;0.00;;;14.80;72.20;;;;;;5475181;26;20015;-84
2024/04/14 01:23:15;;;;;;;0.00;0.00;;;14.90;71.80;;;;;;5421259;26;20003;-85
2024/04/14 01:25:41;;;;;;;0.03;0.03;;;14.90;71.90;;;;;;5446005;26;19995;-83
2024/04/14 01:28:06;;;;;;;0.00;0.00;;;14.80;72.50;;;;;;5448469;26;19996;-84
2024/04/14 01:30:32;;;;;;;0.00;0.00;;;14.70;73.30;;;;;;5448765;26;19995;-84
2024/04/14 01:32:57;;;;;;;0.00;0.00;;;14.60;74.00;;;;;;5426646;26;20009;-84
2024/04/14 01:35:23;;;;;;;0.00;0.00;;;14.60;73.90;;;;;;5447302;26;20011;-84
2024/04/14 01:37:49;;;;;;;0.00;0.00;;;14.70;73.80;;;;;;5421266;26;20305;-83
2024/04/14 01:40:14;;;;;;;0.00;0.00;;;14.70;73.90;;;;;;5420431;26;20019;-84
2024/04/14 01:42:41;;;;;;;0.00;0.00;;;14.60;74.30;;;;;;5420968;26;20080;-83
2024/04/14 01:45:09;;;;;;;0.00;0.00;;;14.40;75.10;;;;;;5419943;26;20388;-84
2024/04/14 01:47:37;;;;;;;0.00;0.00;;;14.30;75.40;;;;;;5420175;26;20007;-83
2024/04/14 01:50:03;;;;;;;0.00;0.00;;;14.40;75.60;;;;;;5447901;26;19999;-84
2024/04/14 01:52:29;;;;;;;0.00;0.00;;;14.50;75.20;;;;;;5420450;26;20018;-83
2024/04/14 01:54:54;;;;;;;0.00;0.00;;;14.40;75.50;;;;;;5420357;26;20003;-84
2024/04/14 01:57:20;;;;;;;0.00;0.00;;;14.50;75.50;;;;;;5420883;26;20000;-84
2024/04/14 01:59:47;;;;;;;0.00;0.00;;;14.60;75.20;;;;;;5419820;26;20338;-84
2024/04/14 02:02:13;;;;;;;0.00;0.00;;;14.70;74.80;;;;;;5420657;26;20004;-84
2024/04/14 02:04:39;;;;;;;0.00;0.00;;;14.70;74.90;;;;;;5451296;26;20017;-84
2024/04/14 02:07:04;;;;;;;0.00;0.00;;;14.70;75.10;;;;;;5456321;26;20010;-84
2024/04/14 02:09:30;;;;;;;0.00;0.00;;;14.60;75.10;;;;;;5430460;26;20010;-84
2024/04/14 02:11:56;;;;;;;0.00;0.00;;;14.50;75.60;;;;;;5432883;26;20015;-84
2024/04/14 02:14:21;;;;;;;0.00;0.00;;;14.40;75.80;;;;;;5420220;26;20306;-84
2024/04/14 02:16:47;;;;;;;0.00;0.00;;;14.30;75.80;;;;;;5420263;26;20000;-84
2024/04/14 02:19:13;;;;;;;0.00;0.00;;;14.40;75.90;;;;;;5437117;26;19998;-84
2024/04/14 02:21:38;;;;;;;0.00;0.00;;;14.40;75.60;;;;;;5454385;26;20021;-84
2024/04/14 02:24:04;;;;;;;0.00;0.00;;;14.30;75.60;;;;;;5455220;26;20064;-84
2024/04/14 02:26:30;;;;;;;0.00;0.00;;;14.40;75.80;;;;;;5455797;26;19999;-84
2024/04/14 02:28:55;;;;;;;0.00;0.00;;;14.50;75.50;;;;;;5430154;26;20006;-84
2024/04/14 02:31:21;;;;;;;0.00;0.00;;;14.50;75.20;;;;;;5419211;26;20007;-85
2024/04/14 02:33:47;;;;;;;0.00;0.00;;;14.50;75.30;;;;;;5438534;26;20334;-85
2024/04/14 02:36:12;;;;;;;0.00;0.00;;;14.60;75.20;;;;;;5446532;26;20011;-85
2024/04/14 02:38:38;;;;;;;0.00;0.00;;;14.60;75.10;;;;;;5419688;26;19999;-84
2024/04/14 02:41:04;;;;;;;0.00;0.00;;;14.60;75.00;;;;;;5419494;26;20007;-85
2024/04/14 02:43:35;;;;;;;0.00;0.00;;;14.50;75.00;;;;;;5419165;26;20000;-85
2024/04/14 02:46:00;;;;;;;0.00;0.00;;;14.40;74.90;;;;;;5419810;26;20010;-85
2024/04/14 02:48:28;;;;;;;0.00;0.00;;;14.40;75.10;;;;;;5418521;26;20018;-84
2024/04/14 02:50:53;;;;;;;0.00;0.00;;;14.50;74.70;;;;;;5447956;26;20019;-84
2024/04/14 02:53:19;;;;;;;0.05;0.05;;;14.40;74.80;;;;;;5419491;26;20008;-84
2024/04/14 02:55:45;;;;;;;0.00;0.00;;;14.40;74.80;;;;;;5447940;26;19995;-85
2024/04/14 02:58:11;;;;;;;0.00;0.00;;;14.30;74.80;;;;;;5419624;26;20374;-84
2024/04/14 03:00:37;;;;;;;0.10;0.10;;;14.20;74.50;;;;;;5418671;26;19999;-85
2024/04/14 03:03:02;;;;;;;0.00;0.00;;;14.20;74.80;;;;;;5448376;26;19998;-85
2024/04/14 03:05:28;;;;;;;0.00;0.00;;;14.30;74.50;;;;;;5427673;26;19996;-84
2024/04/14 03:07:54;;;;;;;0.00;0.00;;;14.30;73.90;;;;;;5419577;26;20014;-84
2024/04/14 03:10:20;;;;;;;0.10;0.10;;;14.10;74.20;;;;;;5419257;26;20488;-85
2024/04/14 03:12:46;;;;;;;0.00;0.00;;;14.10;74.00;;;;;;5452712;26;19999;-85
2024/04/14 03:15:12;;;;;;;0.00;0.00;;;14.20;73.50;;;;;;5452589;26;20035;-85
2024/04/14 03:17:41;;;;;;;0.00;0.00;;;14.20;73.50;;;;;;5471578;26;20014;-85
2024/04/14 03:20:07;;;;;;;0.00;0.00;;;14.20;73.10;;;;;;5452965;26;20429;-85
2024/04/14 03:22:33;;;;;;;0.00;0.00;;;14.10;73.20;;;;;;5452816;26;20039;-85
2024/04/14 03:24:58;;;;;;;0.00;0.00;;;14.10;73.10;;;;;;5419074;26;20004;-85
2024/04/14 03:27:24;;;;;;;0.03;0.03;;;14.10;73.30;;;;;;5419238;26;20016;-85
2024/04/14 03:29:50;;;;;;;0.00;0.00;;;14.20;72.80;;;;;;5419004;26;20000;-85
2024/04/14 03:32:15;;;;;;;0.00;0.00;;;14.10;72.90;;;;;;5419155;26;20026;-85
2024/04/14 03:34:44;;;;;;;0.00;0.00;;;14.20;72.70;;;;;;5450955;26;20013;-85
2024/04/14 03:37:13;;;;;;;0.00;0.00;;;14.20;72.50;;;;;;5455599;26;20011;-85
2024/04/14 03:39:38;;;;;;;0.00;0.00;;;14.30;72.40;;;;;;5457784;26;20007;-84
2024/04/14 03:42:04;;;;;;;0.00;0.00;;;14.20;72.30;;;;;;5453551;26;20003;-85
2024/04/14 03:44:30;;;;;;;0.00;0.00;;;14.20;72.70;;;;;;5422374;26;20000;-85
2024/04/14 03:46:56;;;;;;;0.00;0.00;;;14.20;72.60;;;;;;5422821;26;20000;-85
2024/04/14 03:49:22;;;;;;;0.00;0.00;;;14.30;72.20;;;;;;5421951;26;20000;-85
2024/04/14 03:51:47;;;;;;;0.00;0.00;;;14.30;72.20;;;;;;5422586;26;20049;-85
2024/04/14 03:54:14;;;;;;;0.03;0.03;;;14.30;72.10;;;;;;5422375;26;20072;-85
2024/04/14 03:56:39;;;;;;;0.00;0.00;;;14.30;72.00;;;;;;5451547;26;20106;-86
2024/04/14 03:59:06;;;;;;;0.10;0.10;;;14.30;71.90;;;;;;5426532;26;20011;-85
2024/04/14 04:01:31;;;;;;;0.10;0.10;;;14.30;71.80;;;;;;5422264;26;20004;-85
2024/04/14 04:03:58;;;;;;;0.00;0.00;;;14.20;72.10;;;;;;5443094;26;19999;-85
2024/04/14 04:06:23;;;;;;;0.00;0.00;;;14.30;72.10;;;;;;5451998;26;20003;-85
2024/04/14 04:08:49;;;;;;;0.10;0.10;;;14.30;72.10;;;;;;5435336;26;20010;-85
2024/04/14 04:11:14;;;;;;;0.00;0.00;;;14.20;72.20;;;;;;5439622;26;19994;-85
2024/04/14 04:13:40;;;;;;;0.00;0.00;;;14.20;72.50;;;;;;5457342;26;20460;-85
2024/04/14 04:16:07;;;;;;;0.00;0.00;;;14.10;72.50;;;;;;5456891;26;19994;-85
2024/04/14 04:18:33;;;;;;;0.00;0.00;;;14.20;72.80;;;;;;5449258;26;20080;-84
2024/04/14 04:21:01;;;;;;;0.00;0.00;;;14.20;72.50;;;;;;5422438;26;20010;-85
2024/04/14 04:23:27;;;;;;;0.00;0.00;;;14.10;72.80;;;;;;5446979;26;20028;-85
2024/04/14 04:25:56;;;;;;;0.00;0.00;;;14.00;73.20;;;;;;5421915;26;20065;-85
2024/04/14 04:28:23;;;;;;;0.00;0.00;;;14.00;73.00;;;;;;5422007;26;20073;-85
2024/04/14 04:30:52;;;;;;;0.10;0.10;;;14.00;73.00;;;;;;5420687;26;19996;-85
2024/04/14 04:33:18;;;;;;;0.00;0.00;;;13.90;73.20;;;;;;5445906;26;20467;-85
2024/04/14 04:36:00;;;;;;;0.00;0.00;;;13.90;73.50;;;;;;5457639;26;20001;-86
2024/04/14 04:38:26;;;;;;;0.10;0.10;;;13.90;73.80;;;;;;5455656;26;19999;-86
2024/04/14 04:40:52;;;;;;;0.00;0.00;;;13.90;73.60;;;;;;5457407;26;20006;-86
2024/04/14 04:43:19;;;;;;;0.10;0.10;;;13.90;73.70;;;;;;5448556;26;19995;-86
2024/04/14 04:45:45;;;;;;;0.00;0.00;;;14.00;73.30;;;;;;5421682;26;20027;-86
2024/04/14 04:48:10;;;;;;;0.00;0.00;;;14.00;73.30;;;;;;5419379;26;20010;-86
2024/04/14 04:50:37;;;;;;;0.00;0.00;;;14.10;73.00;;;;;;5453684;26;20018;-86
2024/04/14 04:53:03;;;;;;;0.10;0.10;;;14.20;73.00;;;;;;5431762;26;20073;-86
2024/04/14 04:55:28;;;;;;;0.00;0.00;;;14.10;72.90;;;;;;5420946;26;19995;-86
2024/04/14 04:57:54;;;;;;;0.00;0.00;;;14.20;72.80;;;;;;5449892;26;20447;-85
2024/04/14 05:00:20;;;;;;;0.00;0.00;;;14.10;72.90;;;;;;5421085;26;20010;-86
2024/04/14 05:02:45;;;;;;;0.00;0.00;;;14.10;72.90;;;;;;5452945;26;20083;-85
2024/04/14 05:05:11;;;;;;;0.00;0.00;;;14.10;72.90;;;;;;5423979;26;20080;-85
2024/04/14 05:07:36;;;;;;;0.10;0.10;;;14.20;72.90;;;;;;5454438;26;19998;-85
2024/04/14 05:10:02;;;;;;;0.00;0.00;;;14.20;72.50;;;;;;5457010;26;20011;-85
2024/04/14 05:12:28;;;;;;;0.00;0.00;;;14.00;72.40;;;;;;5455357;26;20054;-85
2024/04/14 05:14:54;;;;;;;0.00;0.00;;;14.10;72.40;;;;;;5457290;26;19999;-85
2024/04/14 05:17:19;;;;;;;0.10;0.10;;;14.10;72.20;;;;;;5434984;26;19996;-86
2024/04/14 05:19:45;;;;;;;0.00;0.00;;;14.10;72.30;;;;;;5421170;26;20097;-86
2024/04/14 05:22:10;;;;;;;0.00;0.00;;;14.00;72.50;;;;;;5421445;26;19999;-85
2024/04/14 05:24:36;;;;;;;0.00;0.00;;;14.00;72.40;;;;;;5421068;26;20000;-85
2024/04/14 05:27:03;;;;;;;0.00;0.00;;;14.10;72.50;;;;;;5434589;26;20006;-85
2024/04/14 05:29:30;;;;;;;0.10;0.10;;;14.10;72.30;;;;;;5419212;26;20338;-84
2024/04/14 05:31:56;;;;;;;0.00;0.00;;;14.10;72.20;;;;;;5449325;26;20007;-85
2024/04/14 05:34:21;;;;;;;0.00;0.00;;;14.10;72.30;;;;;;5448454;26;20014;-84
2024/04/14 05:36:47;;;;;;;0.00;0.00;;;14.10;72.10;;;;;;5447330;26;20076;-84
2024/04/14 05:39:13;;;;;;;0.00;0.00;;;14.20;71.90;;;;;;5420651;26;20022;-85
2024/04/14 05:41:38;;;;;;;0.00;0.00;;;14.20;71.90;;;;;;5468480;26;20008;-85
2024/04/14 05:44:04;;;;;;;0.00;0.00;;;14.20;71.80;;;;;;5493175;26;20006;-85
2024/04/14 05:46:30;;;;;;;0.00;0.00;;;14.00;72.00;;;;;;5493017;26;20009;-85
2024/04/14 05:48:55;;;;;;;0.10;0.10;;;14.20;72.00;;;;;;5452747;26;20011;-85
2024/04/14 05:51:21;;;;;;;0.00;0.00;;;14.20;71.80;;;;;;5456772;26;19998;-85
2024/04/14 05:53:48;;;;;;;0.03;0.03;;;14.30;71.70;;;;;;5456333;26;20011;-85
2024/04/14 05:56:14;;;;;;;0.00;0.00;;;14.30;71.60;;;;;;5454965;26;20010;-84
2024/04/14 05:58:40;;;;;;;0.10;0.10;;;14.30;71.60;;;;;;5432570;26;19995;-85
2024/04/14 06:01:07;;;;;;;0.00;0.00;;;14.30;71.20;;;;;;5420274;26;20035;-85
2024/04/14 06:03:32;;;;;;;0.00;0.00;;;14.30;71.20;;;;;;5452806;26;20513;-84
2024/04/14 06:05:58;;;;;;;0.10;0.10;;;14.30;71.20;;;;;;5456668;26;20019;-84
2024/04/14 06:08:24;;;;;;;0.00;0.00;;;14.40;71.30;;;;;;5450019;26;20477;-83
2024/04/14 06:10:49;;;;;;;0.10;0.10;;;14.30;71.50;;;;;;5457283;26;20005;-83
2024/04/14 06:13:17;;;;;;;0.10;0.10;;;14.40;71.50;;;;;;5452400;26;20079;-82
2024/04/14 06:15:46;;;;;;;0.08;0.08;;;14.50;71.20;;;;;;5453977;26;20003;-78
2024/04/14 06:18:14;;;;;;;0.10;0.10;;;14.60;71.10;;;;;;5453637;26;20013;-79
2024/04/14 06:20:40;;;;;;;0.10;0.10;;;14.60;70.90;;;;;;5474274;26;20013;-80
2024/04/14 06:23:06;;;;;;;0.05;0.05;;;14.70;70.80;;;;;;5450120;26;20015;-86
2024/04/14 06:26:00;;;;;;;0.10;0.10;;;14.70;70.60;;;;;;5450487;26;20456;-79
2024/04/14 06:28:25;;;;;;;0.00;0.00;;;14.70;70.40;;;;;;5450205;26;20049;-80
2024/04/14 06:30:51;;;;;;;0.00;0.00;;;14.80;70.20;;;;;;5451869;26;20434;-80
2024/04/14 06:33:20;;;;;;;0.10;0.10;;;14.70;70.50;;;;;;5453085;26;20007;-80
2024/04/14 06:35:46;;;;;;;0.08;0.08;;;14.80;70.30;;;;;;5455636;26;20003;-77
2024/04/14 06:38:12;;;;;;;0.00;0.00;;;14.80;70.20;;;;;;5454733;26;20095;-80
2024/04/14 06:40:39;;;;;;;0.00;0.00;;;14.80;69.90;;;;;;5453740;26;19995;-79
2024/04/14 06:43:05;;;;;;;0.00;0.00;;;15.00;69.70;;;;;;5453133;26;19998;-79
2024/04/14 06:45:30;;;;;;;0.00;0.00;;;14.90;69.50;;;;;;5451511;26;19994;-79
2024/04/14 06:47:56;;;;;;;0.00;0.00;;;15.00;69.40;;;;;;5420323;26;19995;-77
2024/04/14 06:50:22;;;;;;;0.10;0.10;;;15.00;69.40;;;;;;5448447;26;20086;-81
2024/04/14 06:52:47;;;;;;;0.00;0.00;;;15.00;69.30;;;;;;5448523;26;20003;-80
2024/04/14 06:55:15;;;;;;;0.10;0.10;;;15.00;69.20;;;;;;5420176;26;19999;-82
2024/04/14 06:57:43;;;;;;;0.05;0.05;;;15.10;69.30;;;;;;5420353;26;20001;-81
2024/04/14 07:00:10;;;;;;;0.00;0.00;;;15.10;68.80;;;;;;5448322;26;20003;-79
2024/04/14 07:02:35;;;;;;;0.10;0.10;;;15.20;68.70;;;;;;5448828;26;20077;-83
2024/04/14 07:05:01;;;;;;;0.00;0.00;;;15.10;68.50;;;;;;5455251;26;20010;-77
2024/04/14 07:07:28;;;;;;;0.10;0.10;;;15.20;68.60;;;;;;5450019;26;20007;-78
2024/04/14 07:09:54;;;;;;;0.10;0.10;;;15.20;68.50;;;;;;5455361;26;20452;-80
2024/04/14 07:12:20;;;;;;;0.08;0.08;;;15.20;68.60;;;;;;5451580;26;20003;-79
2024/04/14 07:14:45;;;;;;;0.10;0.10;;;15.30;68.50;;;;;;5459229;26;20003;-77
2024/04/14 07:17:11;;;;;;;0.10;0.10;;;15.30;68.20;;;;;;5459554;26;20799;-74
2024/04/14 07:19:37;;;;;;;0.00;0.00;;;15.30;68.00;;;;;;5455330;26;20009;-77
2024/04/14 07:22:02;;;;;;;0.10;0.10;;;15.40;68.20;;;;;;5456787;26;20049;-77
2024/04/14 07:24:28;;;;;;;0.00;0.00;;;15.50;67.90;;;;;;5459315;26;20009;-75
2024/04/14 07:26:54;;;;;;;0.00;0.00;;;15.50;67.50;;;;;;5453806;26;20005;-75
2024/04/14 07:29:24;;;;;;;0.00;0.00;;;15.60;67.50;;;;;;5458630;26;20010;-82
2024/04/14 07:31:50;;;;;;;0.00;0.00;;;15.50;67.50;;;;;;5458522;26;20452;-82
2024/04/14 07:34:15;;;;;;;0.08;0.08;;;15.50;67.50;;;;;;5455934;26;20035;-76
2024/04/14 07:36:43;;;;;;;0.10;0.10;;;15.50;67.40;;;;;;5457658;26;20005;-75
2024/04/14 07:39:09;;;;;;;0.00;0.00;;;15.50;67.00;;;;;;5456876;26;19999;-75
2024/04/14 07:41:34;;;;;;;0.00;0.00;;;15.70;67.50;;;;;;5456200;26;20340;-75
2024/04/14 07:44:00;;;;;;;0.10;0.10;;;15.80;67.10;;;;;;5444988;26;20029;-75
2024/04/14 07:46:27;;;;;;;0.00;0.00;;;15.70;66.80;;;;;;5457279;26;20554;-79
2024/04/14 07:48:53;;;;;;;0.00;0.00;;;15.70;67.70;;;;;;5444272;26;20077;-75
2024/04/14 07:51:19;;;;;;;0.10;0.10;;;15.80;67.20;;;;;;5448034;26;20002;-76
2024/04/14 07:53:46;;;;;;;0.10;0.10;;;16.00;66.40;;;;;;5450260;26;20742;-76
2024/04/14 07:56:12;;;;;;;0.10;0.10;;;16.10;65.90;;;;;;5463311;20;20429;-75
2024/04/14 07:58:38;;;;;;;0.05;0.05;;;16.00;65.80;;;;;;5467196;26;20162;-77
2024/04/14 08:01:04;;;;;;;0.10;0.10;;;16.00;65.80;;;;;;5454530;26;20007;-74
2024/04/14 08:03:30;;;;;;;0.00;0.00;;;16.10;65.60;;;;;;5452191;26;20416;-75
2024/04/14 08:05:56;;;;;;;0.00;0.00;;;16.30;65.40;;;;;;5454935;26;20006;-75
2024/04/14 08:08:21;;;;;;;0.00;0.00;;;16.30;65.10;;;;;;5484118;26;20002;-75
2024/04/14 08:10:47;;;;;;;0.05;0.05;;;16.30;64.90;;;;;;5454025;26;20354;-75
2024/04/14 08:13:13;;;;;;;0.10;0.10;;;16.30;64.80;;;;;;5452788;26;20006;-75
2024/04/14 08:15:39;;;;;;;0.10;0.10;;;16.30;64.50;;;;;;5456539;26;20687;-75
2024/04/14 08:18:05;;;;;;;0.10;0.10;;;16.50;64.60;;;;;;5464977;20;20010;-75
2024/04/14 08:20:31;;;;;;;0.10;0.10;;;17.00;63.80;;;;;;5478860;26;20054;-75
2024/04/14 08:22:56;;;;;;;0.10;0.10;;;17.20;62.60;;;;;;5492533;26;19994;-76
2024/04/14 08:25:22;;;;;;;0.10;0.10;;;17.50;61.60;;;;;;5492169;26;20018;-76
2024/04/14 08:27:47;;;;;;;0.10;0.10;;;17.50;61.50;;;;;;5487248;26;20321;-76
2024/04/14 08:30:13;;;;;;;0.10;0.10;;;17.70;61.00;;;;;;5476616;26;20456;-75
2024/04/14 08:32:39;;;;;;;0.10;0.10;;;17.90;61.00;;;;;;5483073;26;20006;-75
2024/04/14 08:35:05;;;;;;;0.10;0.10;;;17.90;60.50;;;;;;5486420;26;19998;-75
2024/04/14 08:37:31;;;;;;;0.10;0.10;;;18.00;59.70;;;;;;5492322;26;19998;-77
2024/04/14 08:39:56;;;;;;;0.10;0.10;;;18.30;59.20;;;;;;5501289;26;20755;-76
2024/04/14 08:42:22;;;;;;;0.10;0.10;;;18.40;58.70;;;;;;5485470;26;20010;-76
2024/04/14 08:44:49;;;;;;;0.50;0.50;;;18.70;58.10;;;;;;5483150;26;19994;-75
2024/04/14 08:47:19;;;;;;;0.20;0.20;;;19.60;56.70;;;;;;5471044;26;20078;-75
2024/04/14 08:49:46;;;;;;;0.10;0.10;;;19.70;54.70;;;;;;5488045;26;19998;-75
2024/04/14 08:52:14;;;;;;;0.10;0.10;;;19.60;55.00;;;;;;5490461;26;19998;-75
2024/04/14 08:54:40;;;;;;;0.30;0.30;;;19.50;54.50;;;;;;5491172;26;20443;-76
2024/04/14 08:57:08;;;;;;;0.20;0.20;;;20.20;54.20;;;;;;5490956;26;20081;-76
2024/04/14 08:59:38;;;;;;;0.10;0.10;;;20.50;53.30;;;;;;5488096;26;21279;-75
2024/04/14 09:02:05;;;;;;;0.32;0.32;;;20.30;53.00;;;;;;5494024;26;19998;-75
2024/04/14 09:04:30;;;;;;;0.20;0.20;;;20.60;53.10;;;;;;5489820;26;20053;-75
2024/04/14 09:06:57;;;;;;;0.40;0.40;;;20.90;51.10;;;;;;5484576;26;19998;-76
2024/04/14 09:09:22;;;;;;;0.20;0.20;;;21.10;51.00;;;;;;5483174;26;19990;-75
2024/04/14 09:11:52;;;;;;;0.10;0.10;;;20.70;51.40;;;;;;5473392;26;20459;-76
2024/04/14 09:14:18;;;;;;;0.30;0.30;;;20.80;51.70;;;;;;5493131;26;20071;-82
2024/04/14 09:16:44;;;;;;;0.30;0.30;;;20.90;51.50;;;;;;5490831;26;20043;-76
2024/04/14 09:19:10;;;;;;;0.60;0.60;;;21.90;49.50;;;;;;5480664;26;20006;-76
2024/04/14 09:21:35;;;;;;;0.20;0.20;;;23.00;47.70;;;;;;5487290;26;20006;-76
2024/04/14 09:24:01;;;;;;;0.40;0.40;;;23.50;46.10;;;;;;5492303;26;20070;-76
2024/04/14 09:26:27;;;;;;;0.60;0.60;;;24.10;44.60;;;;;;5492325;26;20009;-76
2024/04/14 09:29:08;;;;;;;0.60;0.60;;;24.90;43.90;;;;;;5494259;26;20002;-76
2024/04/14 09:31:35;;;;;;;0.70;0.70;;;25.70;42.30;;;;;;5463010;26;19994;-76
2024/04/14 09:34:02;;;;;;;0.60;0.60;;;26.40;39.90;;;;;;5521443;26;19998;-76
2024/04/14 09:36:28;;;;;;;0.60;0.60;;;27.00;38.60;;;;;;5493713;26;20042;-76
2024/04/14 09:38:54;;;;;;;0.20;0.20;;;26.80;39.80;;;;;;5493645;26;19999;-76
2024/04/14 09:41:23;;;;;;;0.60;0.60;;;25.80;40.20;;;;;;5493124;26;20512;-76
2024/04/14 09:43:55;;;;;;;0.20;0.20;;;25.80;40.70;;;;;;5464877;26;20002;-76
2024/04/14 09:46:21;;;;;;;0.20;0.20;;;25.50;40.50;;;;;;5457424;26;20003;-76
2024/04/14 09:48:49;;;;;;;0.50;0.50;;;24.80;41.70;;;;;;5473208;26;19997;-76
2024/04/14 09:51:15;;;;;;;0.50;0.50;;;25.00;41.90;;;;;;5494974;26;19994;-76
2024/04/14 09:53:42;;;;;;;0.50;0.50;;;25.40;41.60;;;;;;5492916;26;19998;-76
2024/04/14 09:56:07;;;;;;;0.60;0.60;;;25.80;41.20;;;;;;5493940;26;20334;-76
2024/04/14 09:58:33;;;;;;;0.80;0.80;;;25.60;41.80;;;;;;5493147;26;19998;-76
2024/04/14 10:01:03;;;;;;;0.70;0.70;;;26.10;40.80;;;;;;5492752;26;20005;-76
2024/04/14 10:03:31;;;;;;;0.60;0.60;;;26.40;40.10;;;;;;5491960;26;20010;-76
2024/04/14 10:05:58;;;;;;;0.60;0.60;;;26.50;39.10;;;;;;5494067;26;20036;-76
2024/04/14 10:08:24;;;;;;;0.50;0.50;;;26.50;39.60;;;;;;5494270;25;19998;-76
2024/04/14 10:10:53;;;;;;;0.60;0.60;;;26.40;39.80;;;;;;5464734;26;20085;-76
2024/04/14 10:13:19;;;;;;;0.68;0.68;;;26.20;40.00;;;;;;5530412;26;20364;-76
2024/04/14 10:15:58;;;;;;;0.60;0.60;;;26.20;39.90;;;;;;5530169;26;20009;-76
2024/04/14 10:18:28;;;;;;;0.50;0.50;;;26.00;40.70;;;;;;5511715;26;20013;-76
2024/04/14 10:20:57;;;;;;;0.30;0.30;;;25.80;40.80;;;;;;5530322;26;20020;-76
2024/04/14 10:23:24;;;;;;;0.10;0.10;;;25.70;42.20;;;;;;5520957;26;20009;-75
2024/04/14 10:25:52;;;;;;;0.10;0.10;;;25.40;42.70;;;;;;5491778;26;20047;-76
2024/04/14 10:28:18;;;;;;;0.10;0.10;;;25.20;43.50;;;;;;5492460;25;20018;-76
2024/04/14 10:30:45;;;;;;;0.10;0.10;;;24.80;43.40;;;;;;5493420;26;20013;-76
2024/04/14 10:33:23;;;;;;;0.08;0.08;;;24.40;44.10;;;;;;5490896;25;20430;-76
2024/04/14 10:36:03;;;;;;;0.10;0.10;;;24.10;45.50;;;;;;5491345;26;20070;-76
2024/04/14 10:38:30;;;;;;;0.10;0.10;;;23.70;46.80;;;;;;5493616;26;20002;-76
2024/04/14 10:40:56;;;;;;;0.10;0.10;;;23.50;45.80;;;;;;5492175;26;20009;-76
2024/04/14 10:43:24;;;;;;;0.10;0.10;;;23.20;46.20;;;;;;5491299;26;20460;-75
2024/04/14 10:45:49;;;;;;;0.00;0.00;;;23.10;46.10;;;;;;5492887;26;20029;-75
2024/04/14 10:48:15;;;;;;;0.00;0.00;;;22.90;46.10;;;;;;5492218;26;20017;-75
2024/04/14 10:50:47;;;;;;;0.10;0.10;;;22.80;46.50;;;;;;5529759;25;20001;-76
2024/04/14 10:53:13;;;;;;;0.00;0.00;;;22.80;47.10;;;;;;5512385;26;20010;-75
2024/04/14 10:55:39;;;;;;;0.10;0.10;;;22.70;47.70;;;;;;5491831;26;20002;-76
2024/04/14 10:58:05;;;;;;;0.10;0.10;;;22.50;49.70;;;;;;5492996;26;19994;-76
2024/04/14 11:00:30;;;;;;;0.10;0.10;;;22.60;48.90;;;;;;5491054;26;20034;-76
2024/04/14 11:02:58;;;;;;;0.10;0.10;;;22.70;47.60;;;;;;5491001;26;20013;-76
2024/04/14 11:05:24;;;;;;;0.10;0.10;;;22.70;48.30;;;;;;5489791;26;20002;-75
2024/04/14 11:07:50;;;;;;;0.10;0.10;;;22.50;48.70;;;;;;5492511;26;20344;-76
2024/04/14 11:10:18;;;;;;;0.10;0.10;;;22.80;48.80;;;;;;5492638;26;20022;-75
2024/04/14 11:12:44;;;;;;;0.10;0.10;;;22.90;48.00;;;;;;5460727;26;19999;-76
2024/04/14 11:15:10;;;;;;;0.10;0.10;;;22.90;48.30;;;;;;5490654;26;20058;-76
2024/04/14 11:17:36;;;;;;;0.00;0.00;;;22.90;47.70;;;;;;5492506;26;20006;-76
2024/04/14 11:20:02;;;;;;;0.00;0.00;;;22.90;48.60;;;;;;5490184;26;20051;-76
2024/04/14 11:22:27;;;;;;;0.10;0.10;;;22.80;46.90;;;;;;5492596;26;20449;-76
2024/04/14 11:24:53;;;;;;;0.05;0.05;;;22.30;47.90;;;;;;5489191;26;20089;-75
2024/04/14 11:27:19;;;;;;;0.10;0.10;;;22.20;49.00;;;;;;5492404;26;20437;-76
2024/04/14 11:29:45;;;;;;;0.10;0.10;;;22.20;49.20;;;;;;5490202;26;19994;-75
2024/04/14 11:34:59;;;;;;;0.10;0.10;;;22.30;50.00;;;;;;5491031;26;20005;-76
2024/04/14 11:37:31;;;;;;;0.10;0.10;;;22.40;50.10;;;;;;5492324;26;20040;-76
2024/04/14 11:39:58;;;;;;;0.00;0.00;;;22.30;50.00;;;;;;5492250;25;20010;-76
2024/04/14 11:42:28;;;;;;;0.00;0.00;;;22.50;50.20;;;;;;5517503;26;20336;-75
2024/04/14 11:44:55;;;;;;;0.10;0.10;;;22.60;49.90;;;;;;5520860;26;20002;-76
2024/04/14 11:47:22;;;;;;;0.00;0.00;;;22.60;49.10;;;;;;5491364;25;20009;-76
2024/04/14 11:49:48;;;;;;;0.10;0.10;;;22.70;49.70;;;;;;5489909;26;19994;-76
2024/04/14 11:52:14;;;;;;;0.10;0.10;;;22.60;50.20;;;;;;5491882;26;19994;-76
2024/04/14 11:54:40;;;;;;;0.10;0.10;;;22.60;49.60;;;;;;5487576;25;20003;-75
2024/04/14 11:57:05;;;;;;;0.10;0.10;;;22.60;49.90;;;;;;5456616;26;20009;-75
2024/04/14 11:59:32;;;;;;;0.10;0.10;;;22.70;50.20;;;;;;5485841;26;20002;-76
2024/04/14 12:01:58;;;;;;;0.10;0.10;;;22.70;48.50;;;;;;5495706;26;19994;-76
2024/04/14 12:04:24;;;;;;;0.00;0.00;;;22.70;49.60;;;;;;5494510;26;19998;-75
2024/04/14 12:06:50;;;;;;;0.10;0.10;;;22.70;49.70;;;;;;5495016;26;20008;-75
2024/04/14 12:09:16;;;;;;;0.00;0.00;;;22.90;49.20;;;;;;5494995;26;19999;-76
2024/04/14 12:11:42;;;;;;;0.10;0.10;;;22.90;49.30;;;;;;5494241;26;20069;-76
2024/04/14 12:14:07;;;;;;;0.10;0.10;;;22.80;48.60;;;;;;5519008;26;20010;-76
2024/04/14 12:16:36;;;;;;;0.10;0.10;;;22.90;48.50;;;;;;5523833;26;20008;-75
2024/04/14 12:19:03;;;;;;;0.05;0.05;;;22.90;48.50;;;;;;5506522;26;20033;-76
2024/04/14 12:21:29;;;;;;;0.10;0.10;;;22.80;48.10;;;;;;5513778;26;20002;-76
2024/04/14 12:23:54;;;;;;;0.10;0.10;;;22.80;49.10;;;;;;5495266;26;20329;-76
2024/04/14 12:26:20;;;;;;;0.10;0.10;;;22.80;48.40;;;;;;5494652;26;19995;-76
2024/04/14 12:28:45;;;;;;;0.00;0.00;;;22.70;48.70;;;;;;5494205;26;20006;-76
2024/04/14 12:31:11;;;;;;;0.10;0.10;;;22.90;48.00;;;;;;5495349;26;20013;-76
2024/04/14 12:33:40;;;;;;;0.10;0.10;;;23.10;47.80;;;;;;5493833;26;19994;-76
2024/04/14 12:36:06;;;;;;;0.10;0.10;;;23.30;48.50;;;;;;5493104;26;20026;-76
2024/04/14 12:38:32;;;;;;;0.10;0.10;;;23.30;48.70;;;;;;5493145;26;20002;-76
2024/04/14 12:40:57;;;;;;;0.10;0.10;;;23.20;47.70;;;;;;5494233;26;20052;-76
2024/04/14 12:43:23;;;;;;;0.10;0.10;;;23.10;48.30;;;;;;5494773;26;20448;-76
2024/04/14 12:45:49;;;;;;;0.00;0.00;;;23.10;47.20;;;;;;5491793;26;20006;-76